createdAt,value
2023-02-04T00:03:12.616Z,1.3
2023-02-04T00:08:22.597Z,1
2023-02-04T00:13:36.092Z,1.1
2023-02-04T00:24:12.514Z,1
2023-02-04T00:34:45.541Z,0.9
2023-02-04T00:39:58.344Z,0.7
2023-02-04T00:45:10.355Z,0.7
2023-02-04T00:50:20.513Z,1
2023-02-04T01:11:41.052Z,0.9
2023-02-04T01:16:47.514Z,1.4
2023-02-04T01:21:58.301Z,3.6
2023-02-04T01:37:53.100Z,0.9
2023-02-04T01:48:28.204Z,4.1
2023-02-04T02:04:22.626Z,1
2023-02-04T02:25:37.923Z,1.7
2023-02-04T02:30:49.398Z,0.4
2023-02-04T02:52:04.026Z,0.6
2023-02-04T02:57:17.507Z,1
2023-02-04T03:13:13.086Z,0.7
2023-02-04T03:18:23.547Z,0.6
2023-02-04T03:39:40.537Z,0.4
2023-02-04T03:44:51.909Z,0.3
2023-02-04T03:50:04.191Z,0.2
2023-02-04T03:55:16.496Z,0.5
2023-02-04T04:00:28.296Z,0.4
2023-02-04T04:16:23.050Z,0.6
2023-02-04T04:21:33.800Z,0.2
2023-02-04T04:42:47.711Z,0.2
2023-02-04T04:47:59.857Z,1.1
2023-02-04T05:03:54.564Z,1
2023-02-04T05:25:10.426Z,1.9
2023-02-04T05:30:22.417Z,1.4
2023-02-04T05:35:32.498Z,0.4
2023-02-04T05:40:44.317Z,1.3
2023-02-04T05:56:38.227Z,2.2
2023-02-04T06:01:49.793Z,1
2023-02-04T06:06:59.040Z,2
2023-02-04T06:28:16.042Z,1.5
2023-02-04T06:44:09.561Z,1.8
2023-02-04T06:54:57.063Z,4.6
2023-02-04T07:00:09.095Z,4.1
2023-02-04T07:05:20.370Z,4.1
2023-02-04T07:15:57.790Z,7.4
2023-02-04T07:26:31.699Z,3.4
2023-02-04T07:31:43.967Z,3.3
2023-02-04T07:36:57.132Z,5.9
2023-02-04T07:42:08.663Z,8.1
2023-02-04T07:52:49.152Z,4.9
2023-02-04T07:58:05.679Z,10.1
2023-02-04T08:03:17.849Z,5.5
2023-02-04T08:24:34.117Z,4.9
2023-02-04T08:40:26.548Z,3.7
2023-02-04T08:56:26.021Z,6.8
2023-02-04T09:01:38.367Z,8.4
2023-02-04T09:17:36.637Z,4.8
2023-02-04T09:22:48.880Z,6.1
2023-02-04T09:28:06.053Z,9.2
2023-02-04T09:43:58.892Z,4.9
2023-02-04T09:49:10.992Z,5.9
2023-02-04T10:10:29.133Z,6.8
2023-02-04T10:26:29.074Z,11.6
2023-02-04T10:32:05.553Z,7.3
2023-02-04T10:37:15.134Z,15.3
2023-02-04T10:42:29.385Z,8.4
2023-02-04T10:47:45.047Z,10.6
2023-02-04T10:58:22.189Z,11
2023-02-04T11:03:34.944Z,9.5
2023-02-04T11:14:10.602Z,9.5
2023-02-04T11:19:22.278Z,9.4
2023-02-04T11:24:33.548Z,10.1
2023-02-04T11:29:43.702Z,11.3
2023-02-04T11:34:55.649Z,16.8
2023-02-04T11:40:13.070Z,12.9
2023-02-04T11:45:33.530Z,19.8
2023-02-04T11:50:43.708Z,20.6
2023-02-04T11:55:56.674Z,22.1
2023-02-04T12:01:08.862Z,21.3
2023-02-04T12:06:20.600Z,18.5
2023-02-04T12:16:53.683Z,16.5
2023-02-04T12:22:09.474Z,20.1
2023-02-04T12:27:20.490Z,17
2023-02-04T12:32:31.258Z,18.7
2023-02-04T12:37:49.849Z,15.6
2023-02-04T12:43:00.320Z,19.3
2023-02-04T12:48:13.246Z,19.3
2023-02-04T12:53:24.990Z,15.2
2023-02-04T12:58:44.949Z,19.1
2023-02-04T13:03:56.730Z,9.4
2023-02-04T13:09:10.286Z,25.4
2023-02-04T13:14:24.665Z,12.5
2023-02-04T13:19:40.981Z,19
2023-02-04T13:24:51.340Z,20.7
2023-02-04T13:30:08.963Z,17.3
2023-02-04T13:35:21.096Z,19.2
2023-02-04T13:40:32.643Z,18.1
2023-02-04T13:45:52.005Z,11.8
2023-02-04T13:50:58.169Z,18
2023-02-04T13:56:15.442Z,29.8
2023-02-04T14:01:24.852Z,16
2023-02-04T14:06:36.658Z,13.4
2023-02-04T14:11:47.283Z,11.8
2023-02-04T14:22:20.803Z,14.6
2023-02-04T14:27:37.208Z,26.6
2023-02-04T14:32:53.224Z,67
2023-02-04T14:38:09.073Z,19.8
2023-02-04T14:43:20.849Z,13.5
2023-02-04T14:48:35.550Z,8.5
2023-02-04T14:53:48.970Z,36.5
2023-02-04T14:58:58.941Z,12.5
2023-02-04T15:09:32.924Z,12
2023-02-04T15:14:42.124Z,11.1
2023-02-04T15:19:54.479Z,30.6
2023-02-04T15:25:17.134Z,10.4
2023-02-04T15:30:25.021Z,13.3
2023-02-04T15:41:03.741Z,7.4
2023-02-04T15:46:07.020Z,8
2023-02-04T15:51:19.024Z,8.8
2023-02-04T15:56:30.996Z,8.8
2023-02-04T16:01:43.023Z,18.5
2023-02-04T16:06:59.136Z,16.3
2023-02-04T16:12:07.300Z,11.8
2023-02-04T16:17:19.279Z,15.8
2023-02-04T16:22:29.016Z,12
2023-02-04T16:27:43.829Z,10.9
2023-02-04T16:32:53.677Z,11.4
2023-02-04T16:38:04.083Z,9.7
2023-02-04T16:43:15.612Z,15.3
2023-02-04T16:48:26.965Z,17.9
2023-02-04T16:53:37.026Z,26.8
2023-02-04T16:58:48.919Z,34.9
2023-02-04T17:04:04.661Z,14.1
2023-02-04T17:09:15.278Z,30.4
2023-02-04T17:14:27.087Z,29.7
2023-02-04T17:19:38.081Z,22.2
2023-02-04T17:24:54.179Z,39.5
2023-02-04T17:30:06.935Z,24
2023-02-04T17:35:18.414Z,18.1
2023-02-04T17:45:55.665Z,38.7
2023-02-04T17:51:06.517Z,22.2
2023-02-04T17:56:18.839Z,23.8
2023-02-04T18:01:31.114Z,24.8
2023-02-04T18:12:02.600Z,22.5
2023-02-04T18:17:14.695Z,25.4
2023-02-04T18:22:30.549Z,34.9
2023-02-04T18:33:04.907Z,44.1
2023-02-04T18:38:19.883Z,43.1
2023-02-04T18:43:32.945Z,30.6
2023-02-04T18:48:44.286Z,27.8
2023-02-04T18:53:56.266Z,25.8
2023-02-04T18:59:08.196Z,31.9
2023-02-04T19:09:45.358Z,36.7
2023-02-04T19:14:56.512Z,34.3
2023-02-04T19:20:08.644Z,37.1
2023-02-04T19:25:19.319Z,35.8
2023-02-04T19:30:35.945Z,25.8
2023-02-04T19:36:01.109Z,31.1
2023-02-04T19:41:09.397Z,28
2023-02-04T19:46:19.831Z,29.3
2023-02-04T19:51:36.676Z,26.4
2023-02-04T19:56:56.677Z,35.1
2023-02-04T20:02:08.138Z,29.1
2023-02-04T20:07:24.150Z,35.9
2023-02-04T20:12:36.368Z,38.6
2023-02-04T20:17:50.930Z,40.4
2023-02-04T20:23:00.793Z,50.8
2023-02-04T20:33:33.070Z,259.5
2023-02-04T20:38:47.626Z,98.4
2023-02-04T20:43:57.181Z,52.1
2023-02-04T20:49:13.094Z,63.2
2023-02-04T20:54:28.493Z,48.8
2023-02-04T20:59:44.764Z,64.4
2023-02-04T21:05:01.417Z,48.1
2023-02-04T21:10:17.909Z,34.6
2023-02-04T21:15:29.539Z,44.6
2023-02-04T21:20:44.922Z,32.6
2023-02-04T21:31:19.390Z,28.6
2023-02-04T21:41:52.606Z,44.9
2023-02-04T21:47:11.088Z,33.7
2023-02-04T21:52:27.828Z,41.2
2023-02-04T21:57:39.390Z,29.6
2023-02-04T22:02:51.298Z,35.1
2023-02-04T22:08:03.516Z,43.4
2023-02-04T22:13:18.974Z,37.3
2023-02-04T22:18:33.527Z,36.1
2023-02-04T22:23:50.389Z,36.2
2023-02-04T22:29:04.445Z,31.3
2023-02-04T22:39:36.806Z,43.2
2023-02-04T22:50:08.313Z,39.8
2023-02-04T22:55:23.760Z,52.5
2023-02-04T23:00:36.931Z,37.5
2023-02-04T23:05:52.829Z,47.7
2023-02-04T23:16:30.430Z,41.4
2023-02-04T23:21:40.862Z,36.2
2023-02-04T23:26:54.252Z,57.1
2023-02-04T23:32:08.769Z,56.6
2023-02-04T23:42:42.382Z,58.4
2023-02-04T23:47:58.746Z,44.1
2023-02-04T23:53:14.242Z,61.7
2023-02-04T23:58:31.430Z,129.6
